createdAt,value
2022-08-19T00:01:56.431Z,57.79
2022-08-19T00:04:26.630Z,58.04
2022-08-19T00:06:53.733Z,58.20
2022-08-19T00:09:22.332Z,58.95
2022-08-19T00:11:49.138Z,57.87
2022-08-19T00:14:17.574Z,57.86
2022-08-19T00:16:47.071Z,57.31
2022-08-19T00:19:14.249Z,57.50
2022-08-19T00:21:41.108Z,58.10
2022-08-19T00:24:09.868Z,57.94
2022-08-19T00:26:38.510Z,58.08
2022-08-19T00:29:07.327Z,58.48
2022-08-19T00:31:34.961Z,58.56
2022-08-19T00:34:01.667Z,58.48
2022-08-19T00:36:29.617Z,58.99
2022-08-19T00:38:56.538Z,59.51
2022-08-19T00:41:25.731Z,59.77
2022-08-19T00:44:09.787Z,59.58
2022-08-19T00:46:39.151Z,59.69
2022-08-19T00:49:37.392Z,59.70
2022-08-19T00:52:10.203Z,60.50
2022-08-19T00:54:38.369Z,59.98
2022-08-19T00:57:09.964Z,59.38
2022-08-19T01:00:00.547Z,59.23
2022-08-19T01:02:28.333Z,59.58
2022-08-19T01:04:56.405Z,59.72
2022-08-19T01:07:23.338Z,60.16
2022-08-19T01:09:51.421Z,60.43
2022-08-19T01:12:19.273Z,60.58
2022-08-19T01:14:47.755Z,60.61
2022-08-19T01:17:16.620Z,61.18
2022-08-19T01:19:44.936Z,61.10
2022-08-19T01:22:32.894Z,61.26
2022-08-19T01:25:00.896Z,61.87
2022-08-19T01:27:35.306Z,62.28
2022-08-19T01:30:21.091Z,63.20
2022-08-19T01:32:48.006Z,63.77
2022-08-19T01:35:14.955Z,63.78
2022-08-19T01:38:03.104Z,64.63
2022-08-19T01:40:34.202Z,65.01
2022-08-19T01:43:01.598Z,64.55
2022-08-19T01:45:30.104Z,64.66
2022-08-19T01:48:01.908Z,64.11
2022-08-19T01:50:30.423Z,64.03
2022-08-19T01:53:05.929Z,63.74
2022-08-19T01:55:41.364Z,63.46
2022-08-19T01:58:13.587Z,62.90
2022-08-19T02:00:40.708Z,60.31
2022-08-19T02:03:07.795Z,57.58
2022-08-19T02:05:34.616Z,57.11
2022-08-19T02:08:01.428Z,57.04
2022-08-19T02:10:28.180Z,56.76
2022-08-19T02:12:55.270Z,55.94
2022-08-19T02:15:23.322Z,55.42
2022-08-19T02:17:50.139Z,55.86
2022-08-19T02:20:17.726Z,56.15
2022-08-19T02:22:44.541Z,56.94
2022-08-19T02:25:13.686Z,57.76
2022-08-19T02:27:41.772Z,58.40
2022-08-19T02:30:14.444Z,60.13
2022-08-19T02:32:44.809Z,61.27
2022-08-19T02:35:14.272Z,62.25
2022-08-19T02:38:01.637Z,64.07
2022-08-19T02:40:30.152Z,65.50
2022-08-19T02:42:57.310Z,66.05
2022-08-19T02:45:24.361Z,66.26
2022-08-19T02:47:51.167Z,65.87
2022-08-19T02:50:18.691Z,65.33
2022-08-19T02:52:46.403Z,65.38
2022-08-19T02:55:13.249Z,65.46
2022-08-19T02:57:40.023Z,66.20
2022-08-19T03:00:09.233Z,67.00
2022-08-19T03:02:36.019Z,66.44
2022-08-19T03:05:05.021Z,65.94
2022-08-19T03:07:31.976Z,65.76
2022-08-19T03:09:59.025Z,65.73
2022-08-19T03:12:26.104Z,66.79
2022-08-19T03:14:53.906Z,67.15
2022-08-19T03:17:21.110Z,66.03
2022-08-19T03:19:47.806Z,65.79
2022-08-19T03:22:15.261Z,65.91
2022-08-19T03:24:42.016Z,66.24
2022-08-19T03:27:08.773Z,65.38
2022-08-19T03:29:43.956Z,65.43
2022-08-19T03:32:19.827Z,65.33
2022-08-19T03:34:58.437Z,64.88
2022-08-19T03:37:25.102Z,64.78
2022-08-19T03:39:52.777Z,64.59
2022-08-19T03:42:32.841Z,65.21
2022-08-19T03:45:06.391Z,66.11
2022-08-19T03:47:33.376Z,66.66
2022-08-19T03:50:00.240Z,67.05
2022-08-19T03:52:26.956Z,68.27
2022-08-19T03:54:53.757Z,67.83
2022-08-19T03:57:20.530Z,68.73
2022-08-19T03:59:47.228Z,68.05
2022-08-19T04:02:14.398Z,67.81
2022-08-19T04:04:44.291Z,67.78
2022-08-19T04:07:14.590Z,67.00
2022-08-19T04:09:41.289Z,67.14
2022-08-19T04:12:08.657Z,67.08
2022-08-19T04:14:36.274Z,67.63
2022-08-19T04:17:05.884Z,67.95
2022-08-19T04:19:37.060Z,68.09
2022-08-19T04:22:05.033Z,67.52
2022-08-19T04:24:32.213Z,67.75
2022-08-19T04:27:01.167Z,67.53
2022-08-19T04:29:28.082Z,68.22
2022-08-19T04:31:57.277Z,69.07
2022-08-19T04:34:26.848Z,69.47
2022-08-19T04:36:55.818Z,69.93
2022-08-19T04:39:49.741Z,70.06
2022-08-19T04:42:38.185Z,70.47
2022-08-19T04:45:09.372Z,71.40
2022-08-19T04:47:48.091Z,71.54
2022-08-19T04:50:27.466Z,71.86
2022-08-19T04:52:56.538Z,72.38
2022-08-19T04:55:26.365Z,72.08
2022-08-19T04:57:53.266Z,72.44
2022-08-19T05:00:20.002Z,73.37
2022-08-19T05:02:46.845Z,72.45
2022-08-19T05:05:14.103Z,72.77
2022-08-19T05:07:42.090Z,72.54
2022-08-19T05:10:09.063Z,72.61
2022-08-19T05:12:35.824Z,72.59
2022-08-19T05:15:04.773Z,73.77
2022-08-19T05:17:37.484Z,71.30
2022-08-19T05:20:25.822Z,72.56
2022-08-19T05:22:53.400Z,70.60
2022-08-19T05:25:21.859Z,70.71
2022-08-19T05:27:49.470Z,70.52
2022-08-19T05:30:17.742Z,70.45
2022-08-19T05:32:44.699Z,69.86
2022-08-19T05:35:12.727Z,70.63
2022-08-19T05:37:41.561Z,70.56
2022-08-19T05:40:09.989Z,69.70
2022-08-19T05:42:36.860Z,69.06
2022-08-19T05:45:05.375Z,69.68
2022-08-19T05:47:32.973Z,69.69
2022-08-19T05:49:59.765Z,69.59
2022-08-19T05:52:27.738Z,68.60
2022-08-19T05:54:56.844Z,68.09
2022-08-19T05:57:24.891Z,68.33
2022-08-19T05:59:53.037Z,66.02
2022-08-19T06:02:24.807Z,66.33
2022-08-19T06:04:51.586Z,66.97
2022-08-19T06:07:18.419Z,67.68
2022-08-19T06:09:54.433Z,67.95
2022-08-19T06:12:32.585Z,68.41
2022-08-19T06:15:00.990Z,68.13
2022-08-19T06:17:31.447Z,64.65
2022-08-19T06:19:59.696Z,63.94
2022-08-19T06:22:26.979Z,63.64
2022-08-19T06:24:54.997Z,64.31
2022-08-19T06:27:22.926Z,64.81
2022-08-19T06:29:50.162Z,64.59
2022-08-19T06:32:19.749Z,64.04
2022-08-19T06:34:47.426Z,64.57
2022-08-19T06:37:14.705Z,63.65
2022-08-19T06:39:44.066Z,63.63
2022-08-19T06:42:14.172Z,63.65
2022-08-19T06:44:43.790Z,63.74
2022-08-19T06:47:23.511Z,62.82
2022-08-19T06:50:02.945Z,62.95
2022-08-19T06:52:34.056Z,62.11
2022-08-19T06:55:06.416Z,62.16
2022-08-19T06:57:34.394Z,61.73
2022-08-19T07:00:01.553Z,61.51
2022-08-19T07:02:28.528Z,61.96
2022-08-19T07:04:56.761Z,61.81
2022-08-19T07:07:24.282Z,61.72
2022-08-19T07:09:58.468Z,61.78
2022-08-19T07:12:38.061Z,63.11
2022-08-19T07:15:10.844Z,62.87
2022-08-19T07:17:40.197Z,63.28
2022-08-19T07:20:09.606Z,63.58
2022-08-19T07:22:40.880Z,64.16
2022-08-19T07:25:09.502Z,63.75
2022-08-19T07:27:36.658Z,64.36
2022-08-19T07:30:05.647Z,62.96
2022-08-19T07:32:32.715Z,62.94
2022-08-19T07:35:01.553Z,61.90
2022-08-19T07:37:33.024Z,61.92
2022-08-19T07:40:01.486Z,62.42
2022-08-19T07:42:30.766Z,62.98
2022-08-19T07:44:59.171Z,61.99
2022-08-19T07:47:50.090Z,60.54
2022-08-19T07:50:12.931Z,59.48
2022-08-19T07:52:40.778Z,59.27
2022-08-19T07:55:40.537Z,58.76
2022-08-19T07:57:56.627Z,61.97
2022-08-19T08:00:24.543Z,60.29
2022-08-19T08:02:55.183Z,60.57
2022-08-19T08:05:43.971Z,60.14
2022-08-19T08:08:32.092Z,60.98
2022-08-19T08:10:59.989Z,60.51
2022-08-19T08:13:28.148Z,57.21
2022-08-19T08:15:56.564Z,55.87
2022-08-19T08:18:27.896Z,54.78
2022-08-19T08:20:58.437Z,53.24
2022-08-19T08:23:26.754Z,53.81
2022-08-19T08:25:57.614Z,53.85
2022-08-19T08:28:26.223Z,52.29
2022-08-19T08:30:56.665Z,53.55
2022-08-19T08:33:32.688Z,53.75
2022-08-19T08:36:06.219Z,54.54
2022-08-19T08:38:39.826Z,55.16
2022-08-19T08:41:33.499Z,50.87
2022-08-19T08:44:00.372Z,53.81
2022-08-19T08:46:35.061Z,52.60
2022-08-19T08:49:32.547Z,53.06
2022-08-19T08:52:22.551Z,55.33
2022-08-19T08:54:55.387Z,54.11
2022-08-19T08:57:33.746Z,49.34
2022-08-19T09:00:15.459Z,49.03
2022-08-19T09:02:43.520Z,49.38
2022-08-19T09:05:16.442Z,47.72
2022-08-19T09:08:02.859Z,47.96
2022-08-19T09:10:44.261Z,47.35
2022-08-19T09:13:37.362Z,48.04
2022-08-19T09:16:14.929Z,48.88
2022-08-19T09:18:48.468Z,49.18
2022-08-19T09:21:16.375Z,48.38
2022-08-19T09:23:44.371Z,47.39
2022-08-19T09:26:16.339Z,47.99
2022-08-19T09:28:48.320Z,47.81
2022-08-19T09:31:19.123Z,47.50
2022-08-19T09:33:46.253Z,47.87
2022-08-19T09:36:24.278Z,47.67
2022-08-19T09:39:02.172Z,47.99
2022-08-19T09:41:29.858Z,48.15
2022-08-19T09:43:58.153Z,47.23
2022-08-19T09:46:28.756Z,47.02
2022-08-19T09:49:05.991Z,47.50
2022-08-19T09:52:03.086Z,46.19
2022-08-19T09:54:36.194Z,47.05
2022-08-19T09:57:05.132Z,47.93
2022-08-19T09:59:35.194Z,48.42
2022-08-19T10:02:04.026Z,48.79
2022-08-19T10:04:56.281Z,50.13
2022-08-19T10:07:23.455Z,51.10
2022-08-19T10:10:06.409Z,50.24
2022-08-19T10:12:36.542Z,48.51
2022-08-19T10:15:04.287Z,48.73
2022-08-19T10:17:33.469Z,49.03
2022-08-19T10:20:00.892Z,49.22
2022-08-19T10:22:27.793Z,49.40
2022-08-19T10:24:54.931Z,49.05
2022-08-19T10:27:22.265Z,50.15
2022-08-19T10:29:49.019Z,49.81
2022-08-19T10:32:16.148Z,50.21
2022-08-19T10:34:48.510Z,50.74
2022-08-19T10:37:28.947Z,50.49
2022-08-19T10:39:58.083Z,50.42
2022-08-19T10:42:25.013Z,48.98
2022-08-19T10:44:52.178Z,50.23
2022-08-19T10:47:24.654Z,50.15
2022-08-19T10:50:13.242Z,49.22
2022-08-19T10:52:49.630Z,49.55
2022-08-19T10:55:42.506Z,49.27
2022-08-19T10:58:14.573Z,49.21
2022-08-19T11:00:44.042Z,49.32
2022-08-19T11:03:11.232Z,48.92
2022-08-19T11:05:39.883Z,49.54
2022-08-19T11:08:23.283Z,49.33
2022-08-19T11:10:54.782Z,48.80
2022-08-19T11:13:22.109Z,49.12
2022-08-19T11:15:48.841Z,50.12
2022-08-19T11:18:15.632Z,50.27
2022-08-19T11:20:42.338Z,51.08
2022-08-19T11:23:09.095Z,52.01
2022-08-19T11:25:36.308Z,51.46
2022-08-19T11:28:03.195Z,52.15
2022-08-19T11:30:29.940Z,52.27
2022-08-19T11:32:56.969Z,52.38
2022-08-19T11:35:24.302Z,53.45
2022-08-19T11:37:51.002Z,54.08
2022-08-19T11:40:18.126Z,53.64
2022-08-19T11:42:57.221Z,53.21
2022-08-19T11:45:25.507Z,54.80
2022-08-19T11:47:52.291Z,55.16
2022-08-19T11:50:19.088Z,55.39
2022-08-19T11:52:46.560Z,55.15
2022-08-19T11:55:14.938Z,54.87
2022-08-19T11:57:42.712Z,55.71
2022-08-19T12:00:12.662Z,56.68
2022-08-19T12:02:39.446Z,56.78
2022-08-19T12:05:11.957Z,56.58
2022-08-19T12:07:40.732Z,56.84
2022-08-19T12:10:08.364Z,60.03
2022-08-19T12:12:35.786Z,60.91
2022-08-19T12:15:03.246Z,62.51
2022-08-19T12:17:31.884Z,62.33
2022-08-19T12:19:58.853Z,65.97
2022-08-19T12:22:25.869Z,64.46
2022-08-19T12:24:54.398Z,63.08
2022-08-19T12:27:32.046Z,63.68
2022-08-19T12:30:10.915Z,62.70
2022-08-19T12:32:38.812Z,65.26
2022-08-19T12:35:07.077Z,66.49
2022-08-19T12:37:33.962Z,68.23
2022-08-19T12:40:00.763Z,67.07
2022-08-19T12:42:28.030Z,70.89
2022-08-19T12:44:54.986Z,67.20
2022-08-19T12:47:22.191Z,67.83
2022-08-19T12:49:53.867Z,71.96
2022-08-19T12:52:26.821Z,71.37
2022-08-19T12:54:55.809Z,71.95
2022-08-19T12:57:32.957Z,69.87
2022-08-19T13:00:11.050Z,69.00
2022-08-19T13:02:39.417Z,66.78
2022-08-19T13:05:09.490Z,65.04
2022-08-19T13:07:38.415Z,64.78
2022-08-19T13:10:10.132Z,66.35
2022-08-19T13:12:37.001Z,65.94
2022-08-19T13:15:10.747Z,63.61
2022-08-19T13:17:39.291Z,63.57
2022-08-19T13:20:08.960Z,62.12
2022-08-19T13:22:38.906Z,61.53
2022-08-19T13:25:07.852Z,61.07
2022-08-19T13:27:34.575Z,59.12
2022-08-19T13:30:20.405Z,60.10
2022-08-19T13:33:05.532Z,59.95
2022-08-19T13:35:32.353Z,59.43
2022-08-19T13:37:59.080Z,59.73
2022-08-19T13:40:27.952Z,58.80
2022-08-19T13:42:56.072Z,56.78
2022-08-19T13:45:25.425Z,56.12
2022-08-19T13:47:58.423Z,56.87
2022-08-19T13:50:29.619Z,57.58
2022-08-19T13:52:57.069Z,57.48
2022-08-19T13:55:25.340Z,57.16
2022-08-19T13:57:54.177Z,58.03
2022-08-19T14:00:22.832Z,58.80
2022-08-19T14:02:52.940Z,59.00
2022-08-19T14:05:21.539Z,59.97
2022-08-19T14:07:49.127Z,59.32
2022-08-19T14:10:16.671Z,57.91
2022-08-19T14:12:43.688Z,56.09
2022-08-19T14:15:12.680Z,55.37
2022-08-19T14:17:41.656Z,55.07
2022-08-19T14:20:11.364Z,54.56
2022-08-19T14:22:45.520Z,54.75
2022-08-19T14:25:21.121Z,54.98
2022-08-19T14:27:49.438Z,54.85
2022-08-19T14:30:20.757Z,54.47
2022-08-19T14:32:47.550Z,54.90
2022-08-19T14:35:16.366Z,54.60
2022-08-19T14:37:46.191Z,55.96
2022-08-19T14:40:16.841Z,55.49
2022-08-19T14:42:44.724Z,54.67
2022-08-19T14:45:13.050Z,55.09
2022-08-19T14:47:40.943Z,55.27
2022-08-19T14:50:17.801Z,55.33
2022-08-19T14:52:44.985Z,55.66
2022-08-19T14:55:11.900Z,54.58
2022-08-19T14:57:38.642Z,54.53
2022-08-19T15:00:06.335Z,54.50
2022-08-19T15:02:34.758Z,54.94
2022-08-19T15:05:02.908Z,54.91
2022-08-19T15:07:30.377Z,55.29
2022-08-19T15:09:58.130Z,55.63
2022-08-19T15:12:25.835Z,55.53
2022-08-19T15:14:56.108Z,55.39
2022-08-19T15:17:43.670Z,55.78
2022-08-19T15:20:13.697Z,54.46
2022-08-19T15:22:41.080Z,54.04
2022-08-19T15:25:11.611Z,53.69
2022-08-19T15:27:41.133Z,54.11
2022-08-19T15:30:12.917Z,53.67
2022-08-19T15:32:40.113Z,55.63
2022-08-19T15:35:08.312Z,55.90
2022-08-19T15:37:37.242Z,54.07
2022-08-19T15:40:06.425Z,53.62
2022-08-19T15:42:34.058Z,54.63
2022-08-19T15:45:10.262Z,55.17
2022-08-19T15:47:37.929Z,56.15
2022-08-19T15:50:18.593Z,55.34
2022-08-19T15:52:59.015Z,56.49
2022-08-19T15:55:33.148Z,58.00
2022-08-19T15:58:46.160Z,59.07
2022-08-19T16:01:32.005Z,59.19
2022-08-19T16:04:23.658Z,59.33
2022-08-19T16:06:57.890Z,60.48
2022-08-19T16:09:29.398Z,61.28
2022-08-19T16:12:01.760Z,62.25
2022-08-19T16:14:31.362Z,62.59
2022-08-19T16:16:58.237Z,62.56
2022-08-19T16:19:25.551Z,61.23
2022-08-19T16:21:54.726Z,59.98
2022-08-19T16:24:25.770Z,60.53
2022-08-19T16:26:53.072Z,59.33
2022-08-19T16:29:33.331Z,58.83
2022-08-19T16:32:02.961Z,59.22
2022-08-19T16:34:30.431Z,59.90
2022-08-19T16:36:57.355Z,61.04
2022-08-19T16:39:24.394Z,61.63
2022-08-19T16:41:51.610Z,61.93
2022-08-19T16:44:19.524Z,62.88
2022-08-19T16:46:57.297Z,64.55
2022-08-19T16:49:54.008Z,64.88
2022-08-19T16:52:18.522Z,64.53
2022-08-19T16:54:45.813Z,64.44
2022-08-19T16:57:13.139Z,64.98
2022-08-19T16:59:48.079Z,65.16
2022-08-19T17:02:22.026Z,64.37
2022-08-19T17:04:58.142Z,63.87
2022-08-19T17:07:32.210Z,61.72
2022-08-19T17:10:02.139Z,61.29
2022-08-19T17:12:30.775Z,60.95
2022-08-19T17:15:01.107Z,60.52
2022-08-19T17:17:29.525Z,59.99
2022-08-19T17:19:58.636Z,60.15
2022-08-19T17:22:25.422Z,60.40
2022-08-19T17:24:52.129Z,59.69
2022-08-19T17:27:22.982Z,59.76
2022-08-19T17:29:49.737Z,59.94
2022-08-19T17:32:16.514Z,59.98
2022-08-19T17:34:52.218Z,60.53
2022-08-19T17:37:19.325Z,60.92
2022-08-19T17:39:46.167Z,61.01
2022-08-19T17:42:12.917Z,60.72
2022-08-19T17:44:41.033Z,60.79
2022-08-19T17:47:08.056Z,61.45
2022-08-19T17:49:35.330Z,61.00
2022-08-19T17:52:02.237Z,61.36
2022-08-19T17:54:33.401Z,62.35
2022-08-19T17:57:01.424Z,62.19
2022-08-19T17:59:30.186Z,61.10
2022-08-19T18:01:57.155Z,61.18
2022-08-19T18:04:25.440Z,61.64
2022-08-19T18:06:54.701Z,62.84
2022-08-19T18:09:26.840Z,63.54
2022-08-19T18:11:57.111Z,63.90
2022-08-19T18:14:32.857Z,62.78
2022-08-19T18:17:06.100Z,62.97
2022-08-19T18:19:42.232Z,62.97
2022-08-19T18:22:36.378Z,64.20
2022-08-19T18:25:08.768Z,64.75
2022-08-19T18:27:35.981Z,64.10
2022-08-19T18:30:03.909Z,64.53
2022-08-19T18:32:36.782Z,63.77
2022-08-19T18:35:11.170Z,63.42
2022-08-19T18:37:39.455Z,63.10
2022-08-19T18:40:26.704Z,62.67
2022-08-19T18:43:22.377Z,62.96
2022-08-19T18:46:08.661Z,63.68
2022-08-19T18:48:56.435Z,64.77
2022-08-19T18:51:28.113Z,65.51
2022-08-19T18:53:57.412Z,66.10
2022-08-19T18:56:28.569Z,66.71
2022-08-19T18:58:58.891Z,67.92
2022-08-19T19:01:30.837Z,68.79
2022-08-19T19:04:04.994Z,66.23
2022-08-19T19:06:38.048Z,66.74
2022-08-19T19:09:05.794Z,66.61
2022-08-19T19:11:35.289Z,68.18
2022-08-19T19:14:03.413Z,66.82
2022-08-19T19:16:30.963Z,66.68
2022-08-19T19:18:58.337Z,67.87
2022-08-19T19:21:26.847Z,67.53
2022-08-19T19:23:55.166Z,65.98
2022-08-19T19:26:23.056Z,66.66
2022-08-19T19:28:51.415Z,66.20
2022-08-19T19:31:26.551Z,66.28
2022-08-19T19:33:55.220Z,66.09
2022-08-19T19:36:23.282Z,66.97
2022-08-19T19:38:50.120Z,66.86
2022-08-19T19:41:23.399Z,67.24
2022-08-19T19:44:23.170Z,66.26
2022-08-19T19:46:42.808Z,66.18
2022-08-19T19:49:10.398Z,66.99
2022-08-19T19:51:39.494Z,67.49
2022-08-19T19:54:09.535Z,66.92
2022-08-19T19:56:36.258Z,67.01
2022-08-19T19:59:03.799Z,67.85
2022-08-19T20:01:30.650Z,68.65
2022-08-19T20:03:59.041Z,68.97
2022-08-19T20:06:29.073Z,68.40
2022-08-19T20:09:10.268Z,68.91
2022-08-19T20:11:43.727Z,69.18
2022-08-19T20:14:16.416Z,68.18
2022-08-19T20:16:46.052Z,69.76
2022-08-19T20:19:15.480Z,69.13
2022-08-19T20:21:45.443Z,68.30
2022-08-19T20:24:19.717Z,68.37
2022-08-19T20:26:47.301Z,69.05
2022-08-19T20:29:39.410Z,70.34
2022-08-19T20:32:07.938Z,70.85
2022-08-19T20:34:34.698Z,71.58
2022-08-19T20:37:01.390Z,71.44
2022-08-19T20:39:28.096Z,72.64
2022-08-19T20:41:56.565Z,73.75
2022-08-19T20:44:25.511Z,75.16
2022-08-19T20:46:54.959Z,75.29
2022-08-19T20:49:27.146Z,74.73
2022-08-19T20:51:58.438Z,75.09
2022-08-19T20:54:26.152Z,75.52
2022-08-19T20:56:53.475Z,76.12
2022-08-19T20:59:21.740Z,75.84
2022-08-19T21:01:51.829Z,75.97
2022-08-19T21:04:22.300Z,76.18
2022-08-19T21:06:50.580Z,74.93
2022-08-19T21:09:17.283Z,74.01
2022-08-19T21:11:44.279Z,72.95
2022-08-19T21:14:10.989Z,71.50
2022-08-19T21:16:37.632Z,71.66
2022-08-19T21:19:05.084Z,72.69
2022-08-19T21:21:33.101Z,71.72
2022-08-19T21:23:59.925Z,72.21
2022-08-19T21:26:26.658Z,70.67
2022-08-19T21:28:53.474Z,69.36
2022-08-19T21:31:21.083Z,68.57
2022-08-19T21:33:47.848Z,69.09
2022-08-19T21:36:14.677Z,70.00
2022-08-19T21:38:41.428Z,70.55
2022-08-19T21:41:08.145Z,70.28
2022-08-19T21:43:37.562Z,70.51
2022-08-19T21:46:04.829Z,70.17
2022-08-19T21:48:31.669Z,71.08
2022-08-19T21:50:58.585Z,71.05
2022-08-19T21:53:34.191Z,70.80
2022-08-19T21:56:03.124Z,71.15
2022-08-19T21:58:30.522Z,70.85
2022-08-19T22:01:05.931Z,70.59
2022-08-19T22:03:34.302Z,72.00
2022-08-19T22:06:01.639Z,73.34
2022-08-19T22:08:28.393Z,75.09
2022-08-19T22:10:55.366Z,76.07
2022-08-19T22:13:22.133Z,77.06
2022-08-19T22:15:51.827Z,77.88
2022-08-19T22:18:19.005Z,80.31
2022-08-19T22:20:45.892Z,81.24
2022-08-19T22:23:12.585Z,82.01
2022-08-19T22:25:46.039Z,81.63
2022-08-19T22:28:14.883Z,82.82
2022-08-19T22:30:47.134Z,81.98
2022-08-19T22:33:18.533Z,84.00
2022-08-19T22:35:46.923Z,84.47
2022-08-19T22:38:14.420Z,85.66
2022-08-19T22:40:46.004Z,87.15
2022-08-19T22:43:22.798Z,87.93
2022-08-19T22:45:52.170Z,91.67
2022-08-19T22:48:21.450Z,92.04
2022-08-19T22:51:08.168Z,91.00
2022-08-19T22:53:37.415Z,81.43
2022-08-19T22:56:06.729Z,79.46
2022-08-19T22:58:33.632Z,79.70
2022-08-19T23:01:01.452Z,80.04
2022-08-19T23:03:28.927Z,77.35
2022-08-19T23:05:56.287Z,78.94
2022-08-19T23:08:23.410Z,80.58
2022-08-19T23:10:50.225Z,81.88
2022-08-19T23:13:17.792Z,79.96
2022-08-19T23:15:46.895Z,82.21
2022-08-19T23:18:14.035Z,81.57
2022-08-19T23:20:43.352Z,81.78
2022-08-19T23:23:14.277Z,78.10
2022-08-19T23:25:41.048Z,75.93
2022-08-19T23:28:26.497Z,78.27
2022-08-19T23:30:53.756Z,79.42
2022-08-19T23:33:26.427Z,80.60
2022-08-19T23:36:15.996Z,84.64
2022-08-19T23:38:45.705Z,86.36
2022-08-19T23:41:13.845Z,86.04
2022-08-19T23:43:42.011Z,84.54
2022-08-19T23:46:11.441Z,85.26
2022-08-19T23:48:39.767Z,85.39
2022-08-19T23:51:09.311Z,86.72
2022-08-19T23:53:38.240Z,88.24
2022-08-19T23:56:07.333Z,89.05
2022-08-19T23:58:37.285Z,89.66
